Time;durP1;ratioP1;P1;durP2;ratioP2;P2;SDS_P1;SDS_P2;PMS_P1;PMS_P2;Temp;Humidity;BMP_temperature;BMP_pressure;BME280_temperature;BME280_humidity;BME280_pressure;Samples;Min_cycle;Max_cycle;Signal;HPM_P1;HPM_P2
2024/04/01 00:02:14;;;;;;;;;;;;;;;22.92;32.29;97432.05;68042;1275;1016241;-65
2024/04/01 00:05:16;;;;;;;;;;;;;;;22.90;32.23;97429.05;68008;1275;1016993;-61
2024/04/01 00:08:20;;;;;;;;;;;;;;;22.76;32.53;97431.56;67958;1275;1016370;-65
2024/04/01 00:11:23;;;;;;;;;;;;;;;22.67;32.63;97432.41;67974;1275;1015982;-66
2024/04/01 00:14:25;;;;;;;;;;;;;;;22.62;32.72;97436.20;68001;1275;1016847;-65
2024/04/01 00:17:27;;;;;;;;;;;;;;;22.55;32.75;97439.77;68041;1275;1016213;-63
2024/04/01 00:20:29;;;;;;;;;;;;;;;22.44;32.98;97437.63;68045;1275;1018756;-60
2024/04/01 00:23:32;;;;;;;;;;;;;;;22.40;33.13;97435.39;68022;1275;1016293;-66
2024/04/01 00:26:35;;;;;;;;;;;;;;;22.36;33.28;97437.54;68052;1275;1017260;-60
2024/04/01 00:29:38;;;;;;;;;;;;;;;22.35;33.22;97440.70;68022;1275;1016266;-60
2024/04/01 00:32:40;;;;;;;;;;;;;;;22.24;33.42;97441.95;68013;1275;1016351;-61
2024/04/01 00:35:42;;;;;;;;;;;;;;;22.15;33.58;97440.73;67984;1275;1016430;-63
2024/04/01 00:38:44;;;;;;;;;;;;;;;21.91;33.90;97440.63;67970;1275;1016258;-65
2024/04/01 00:41:47;;;;;;;;;;;;;;;21.86;33.99;97435.09;67933;1275;1017028;-60
2024/04/01 00:44:49;;;;;;;;;;;;;;;21.85;34.04;97441.05;68002;1275;1016395;-65
2024/04/01 00:47:51;;;;;;;;;;;;;;;21.81;34.08;97451.42;68051;1275;1016537;-60
2024/04/01 00:50:54;;;;;;;;;;;;;;;21.88;34.17;97458.64;68045;1275;1016158;-63
2024/04/01 00:53:56;;;;;;;;;;;;;;;21.78;34.25;97463.36;68065;1275;1016494;-65
2024/04/01 00:56:58;;;;;;;;;;;;;;;21.80;34.22;97467.23;68003;1275;1016356;-60
2024/04/01 01:00:01;;;;;;;;;;;;;;;21.83;34.25;97462.15;67990;1275;1015767;-65
2024/04/01 01:03:04;;;;;;;;;;;;;;;21.69;34.43;97454.87;68023;1275;1016324;-66
2024/04/01 01:06:06;;;;;;;;;;;;;;;21.74;34.38;97450.08;68037;1275;1017140;-66
2024/04/01 01:09:11;;;;;;;;;;;;;;;21.71;34.36;97456.42;68034;1275;1016359;-59
2024/04/01 01:12:14;;;;;;;;;;;;;;;21.62;34.54;97453.30;67967;1275;1018490;-66
2024/04/01 01:15:17;;;;;;;;;;;;;;;21.30;34.94;97450.88;68003;1275;1016527;-65
2024/04/01 01:18:19;;;;;;;;;;;;;;;21.40;34.81;97448.16;67874;1275;1016869;-61
2024/04/01 01:21:22;;;;;;;;;;;;;;;21.44;34.70;97444.45;68054;1275;1016290;-65
2024/04/01 01:24:25;;;;;;;;;;;;;;;21.41;34.71;97443.31;68026;1275;1016121;-65
2024/04/01 01:27:27;;;;;;;;;;;;;;;21.23;35.04;97445.63;67974;1275;1016295;-65
2024/04/01 01:30:30;;;;;;;;;;;;;;;21.18;35.03;97443.26;67994;1275;1016302;-60
2024/04/01 01:33:33;;;;;;;;;;;;;;;21.12;35.12;97444.29;68027;1275;1016468;-66
2024/04/01 01:36:36;;;;;;;;;;;;;;;20.99;35.29;97444.10;67987;1275;1016357;-65
2024/04/01 01:39:38;;;;;;;;;;;;;;;20.97;35.40;97440.29;68026;1275;1016273;-60
2024/04/01 01:42:40;;;;;;;;;;;;;;;20.88;35.51;97428.61;68045;1275;1016856;-59
2024/04/01 01:45:43;;;;;;;;;;;;;;;20.85;35.51;97429.38;68041;1275;1016272;-65
2024/04/01 01:48:45;;;;;;;;;;;;;;;20.76;35.62;97427.50;67980;1275;1016628;-60
2024/04/01 01:51:48;;;;;;;;;;;;;;;20.70;35.79;97422.56;67992;1275;1015971;-61
2024/04/01 01:54:50;;;;;;;;;;;;;;;20.65;35.81;97429.69;67895;1275;1016308;-59
2024/04/01 01:57:53;;;;;;;;;;;;;;;20.27;36.52;97437.83;68046;1275;1016205;-63
2024/04/01 02:00:55;;;;;;;;;;;;;;;20.14;36.69;97439.59;67988;1275;1016913;-65
2024/04/01 02:03:57;;;;;;;;;;;;;;;20.20;36.66;97441.08;67989;1275;1016443;-65
2024/04/01 02:06:59;;;;;;;;;;;;;;;20.26;36.62;97435.65;67995;1275;1016133;-60
2024/04/01 02:10:02;;;;;;;;;;;;;;;20.23;36.52;97431.33;67934;1275;1016066;-66
2024/04/01 02:13:05;;;;;;;;;;;;;;;19.97;36.98;97426.75;67891;1275;1016261;-65
2024/04/01 02:16:08;;;;;;;;;;;;;;;20.03;37.02;97426.20;67994;1275;1015915;-65
2024/04/01 02:19:10;;;;;;;;;;;;;;;19.98;37.02;97425.33;67997;1275;1016442;-61
2024/04/01 02:22:13;;;;;;;;;;;;;;;19.86;37.29;97420.81;68058;1275;1015917;-66
2024/04/01 02:25:17;;;;;;;;;;;;;;;20.03;37.08;97420.34;68003;1275;1016289;-65
2024/04/01 02:28:19;;;;;;;;;;;;;;;20.09;37.04;97421.59;67977;1275;1016149;-65
2024/04/01 02:31:22;;;;;;;;;;;;;;;20.10;36.97;97431.36;67994;1275;1016727;-65
2024/04/01 02:34:24;;;;;;;;;;;;;;;20.02;37.06;97436.92;67932;1275;1017745;-65
2024/04/01 02:37:26;;;;;;;;;;;;;;;19.98;37.13;97430.33;67984;1275;1016247;-66
2024/04/01 02:40:29;;;;;;;;;;;;;;;19.96;37.12;97425.77;68047;1275;1016439;-65
2024/04/01 02:43:31;;;;;;;;;;;;;;;19.80;37.38;97424.45;67840;1275;1018160;-66
2024/04/01 02:46:34;;;;;;;;;;;;;;;19.65;37.68;97421.75;68009;1275;1016296;-66
2024/04/01 02:49:36;;;;;;;;;;;;;;;19.36;38.33;97422.69;68000;1275;1016497;-65
2024/04/01 02:52:38;;;;;;;;;;;;;;;19.43;38.48;97422.70;68047;1275;1016371;-61
2024/04/01 02:55:40;;;;;;;;;;;;;;;19.70;38.07;97422.69;68025;1275;1016427;-65
2024/04/01 02:58:43;;;;;;;;;;;;;;;19.75;38.00;97426.70;68057;1275;1016417;-66
2024/04/01 03:01:45;;;;;;;;;;;;;;;19.86;37.83;97431.82;68050;1275;1016088;-65
2024/04/01 03:04:48;;;;;;;;;;;;;;;19.62;38.37;97438.49;68009;1275;1016237;-63
2024/04/01 03:07:50;;;;;;;;;;;;;;;19.69;38.39;97432.70;68027;1275;1016472;-64
2024/04/01 03:10:52;;;;;;;;;;;;;;;19.74;38.30;97420.40;68032;1275;1016406;-66
2024/04/01 03:13:55;;;;;;;;;;;;;;;19.77;38.25;97418.64;68056;1275;1016240;-60
2024/04/01 03:16:57;;;;;;;;;;;;;;;19.68;38.51;97422.83;67927;1275;1015948;-63
2024/04/01 03:20:00;;;;;;;;;;;;;;;19.86;38.28;97419.91;67970;1275;1016498;-60
2024/04/01 03:23:02;;;;;;;;;;;;;;;19.79;38.49;97424.58;68026;1275;1016423;-65
2024/04/01 03:26:04;;;;;;;;;;;;;;;19.76;38.65;97430.13;68061;1275;1018635;-66
2024/04/01 03:29:07;;;;;;;;;;;;;;;19.84;38.39;97422.90;68063;1275;1016643;-65
2024/04/01 03:32:09;;;;;;;;;;;;;;;19.75;38.61;97421.89;68034;1275;1016004;-66
2024/04/01 03:35:12;;;;;;;;;;;;;;;19.59;38.77;97425.90;67995;1275;1017199;-65
2024/04/01 03:38:14;;;;;;;;;;;;;;;19.42;39.25;97428.98;67997;1275;1016320;-65
2024/04/01 03:41:16;;;;;;;;;;;;;;;19.36;39.30;97416.92;67959;1275;1016225;-65
2024/04/01 03:44:19;;;;;;;;;;;;;;;19.46;39.10;97410.96;67937;1275;1016388;-61
2024/04/01 03:47:21;;;;;;;;;;;;;;;19.30;39.36;97407.56;67901;1275;1016166;-65
2024/04/01 03:50:23;;;;;;;;;;;;;;;19.21;39.58;97406.55;68022;1275;1016445;-66
2024/04/01 03:53:26;;;;;;;;;;;;;;;19.07;39.64;97409.62;68028;1275;1015750;-65
2024/04/01 03:56:28;;;;;;;;;;;;;;;19.12;39.42;97409.96;67995;1275;1016484;-65
2024/04/01 03:59:31;;;;;;;;;;;;;;;18.93;39.74;97414.39;67981;1275;1016381;-65
2024/04/01 04:02:33;;;;;;;;;;;;;;;18.79;40.11;97405.25;68062;1275;1016214;-66
2024/04/01 04:05:35;;;;;;;;;;;;;;;18.94;39.77;97401.65;68040;1275;1016273;-66
2024/04/01 04:08:38;;;;;;;;;;;;;;;18.82;39.94;97406.66;67985;1275;1016391;-66
2024/04/01 04:11:40;;;;;;;;;;;;;;;18.83;40.03;97411.73;68005;1275;1016421;-61
2024/04/01 04:14:42;;;;;;;;;;;;;;;18.97;39.93;97403.70;68026;1275;1016610;-65
2024/04/01 04:17:45;;;;;;;;;;;;;;;18.89;40.18;97406.71;68041;1275;1016917;-65
2024/04/01 04:20:47;;;;;;;;;;;;;;;19.07;40.06;97402.75;67988;1275;1016577;-65
2024/04/01 04:23:50;;;;;;;;;;;;;;;19.05;40.12;97407.38;68019;1275;1016488;-65
2024/04/01 04:26:53;;;;;;;;;;;;;;;19.07;40.09;97410.48;68046;1275;1016399;-65
2024/04/01 04:29:56;;;;;;;;;;;;;;;19.12;40.05;97415.05;68030;1275;1018854;-65
2024/04/01 04:32:58;;;;;;;;;;;;;;;19.12;40.12;97423.95;67991;1275;1016453;-65
2024/04/01 04:36:00;;;;;;;;;;;;;;;19.19;39.88;97423.23;68022;1275;1016110;-65
2024/04/01 04:39:19;;;;;;;;;;;;;;;19.12;40.10;97433.60;67997;1275;1016357;-64
2024/04/01 04:42:25;;;;;;;;;;;;;;;19.26;40.11;97429.17;68036;1275;1016497;-66
2024/04/01 04:45:28;;;;;;;;;;;;;;;19.25;40.23;97426.34;68041;1275;1016371;-66
2024/04/01 04:48:31;;;;;;;;;;;;;;;19.27;40.29;97425.51;68023;1275;1016493;-65
2024/04/01 04:51:34;;;;;;;;;;;;;;;19.26;40.51;97420.52;68029;1275;1016261;-65
2024/04/01 04:54:37;;;;;;;;;;;;;;;19.35;40.50;97416.17;68009;1275;1015955;-65
2024/04/01 04:57:39;;;;;;;;;;;;;;;19.41;40.47;97418.75;68035;1275;1016609;-60
2024/04/01 05:00:41;;;;;;;;;;;;;;;19.59;40.38;97419.73;68040;1275;1020027;-59
2024/04/01 05:03:44;;;;;;;;;;;;;;;19.69;40.27;97425.30;68082;1275;1016519;-65
2024/04/01 05:06:47;;;;;;;;;;;;;;;19.92;40.05;97415.64;68052;1275;1016379;-65
2024/04/01 05:09:49;;;;;;;;;;;;;;;19.89;40.23;97401.81;68058;1275;1017394;-61
2024/04/01 05:12:52;;;;;;;;;;;;;;;20.03;40.15;97396.19;68061;1275;1016287;-65
2024/04/01 05:15:54;;;;;;;;;;;;;;;20.06;40.18;97394.95;67984;1275;1016084;-66
2024/04/01 05:18:56;;;;;;;;;;;;;;;20.25;40.05;97396.48;68000;1275;1016654;-66
2024/04/01 05:21:59;;;;;;;;;;;;;;;20.50;39.73;97390.28;68006;1275;1016445;-63
2024/04/01 05:25:01;;;;;;;;;;;;;;;20.66;39.45;97393.24;68049;1275;1016101;-65
2024/04/01 05:28:03;;;;;;;;;;;;;;;20.58;39.73;97390.03;68078;1275;1016293;-65
2024/04/01 05:31:06;;;;;;;;;;;;;;;20.46;40.11;97382.23;68054;1275;1016272;-65
2024/04/01 05:34:08;;;;;;;;;;;;;;;20.60;40.01;97378.34;68071;1275;1016494;-66
2024/04/01 05:37:10;;;;;;;;;;;;;;;20.66;39.97;97381.62;68003;1275;1016356;-63
2024/04/01 05:40:13;;;;;;;;;;;;;;;20.86;39.92;97382.23;67993;1275;1016417;-65
2024/04/01 05:43:15;;;;;;;;;;;;;;;21.04;39.68;97383.58;68005;1275;1016456;-66
2024/04/01 05:46:17;;;;;;;;;;;;;;;21.00;39.81;97383.67;68067;1275;1016271;-66
2024/04/01 05:49:20;;;;;;;;;;;;;;;21.05;39.68;97382.93;68062;1275;1016264;-63
2024/04/01 05:52:22;;;;;;;;;;;;;;;21.35;39.41;97384.66;68011;1275;1016937;-65
2024/04/01 05:55:25;;;;;;;;;;;;;;;21.30;39.63;97369.62;68023;1275;1017304;-65
2024/04/01 05:58:27;;;;;;;;;;;;;;;21.41;39.63;97369.46;68035;1275;1016325;-59
2024/04/01 06:01:29;;;;;;;;;;;;;;;21.64;39.55;97372.34;65474;1275;6376876;-66
2024/04/01 06:04:32;;;;;;;;;;;;;;;21.80;39.33;97377.52;68045;1275;1016499;-65
2024/04/01 06:07:34;;;;;;;;;;;;;;;21.95;39.18;97380.19;68058;1275;1016509;-66
2024/04/01 06:10:36;;;;;;;;;;;;;;;22.10;39.01;97377.84;68031;1275;1016724;-65
2024/04/01 06:13:38;;;;;;;;;;;;;;;22.19;38.85;97369.75;67981;1275;1015919;-63
2024/04/01 06:16:41;;;;;;;;;;;;;;;22.29;38.74;97375.73;67988;1275;1015966;-66
2024/04/01 06:19:43;;;;;;;;;;;;;;;22.37;38.63;97373.47;68055;1275;1016507;-60
2024/04/01 06:22:45;;;;;;;;;;;;;;;22.48;38.65;97373.60;68093;1275;1016491;-65
2024/04/01 06:25:49;;;;;;;;;;;;;;;22.64;38.34;97383.62;68057;1275;1016473;-66
2024/04/01 06:28:51;;;;;;;;;;;;;;;22.85;38.22;97399.48;67961;1275;1016113;-65
2024/04/01 06:31:54;;;;;;;;;;;;;;;23.02;38.15;97400.30;68070;1275;1016529;-65
2024/04/01 06:34:56;;;;;;;;;;;;;;;23.23;38.01;97390.69;67968;1275;1016469;-65
2024/04/01 06:37:59;;;;;;;;;;;;;;;23.62;37.39;97396.95;68043;1275;1016423;-66
2024/04/01 06:41:02;;;;;;;;;;;;;;;23.60;37.47;97403.47;68081;1275;1016494;-65
2024/04/01 06:44:04;;;;;;;;;;;;;;;23.53;37.69;97411.92;68057;1275;1017049;-65
2024/04/01 06:47:07;;;;;;;;;;;;;;;23.55;37.77;97408.05;68016;1275;1016140;-65
2024/04/01 06:50:09;;;;;;;;;;;;;;;23.71;37.60;97411.52;67999;1275;1016408;-61
2024/04/01 06:53:11;;;;;;;;;;;;;;;23.83;37.60;97413.63;67997;1275;1016329;-65
2024/04/01 06:56:14;;;;;;;;;;;;;;;24.13;37.48;97415.60;68048;1275;1016486;-65
2024/04/01 06:59:16;;;;;;;;;;;;;;;24.29;37.34;97409.48;68055;1275;1016480;-65
2024/04/01 07:02:18;;;;;;;;;;;;;;;24.15;37.31;97402.07;68076;1275;1016477;-65
2024/04/01 07:05:21;;;;;;;;;;;;;;;24.13;37.01;97389.84;68005;1275;1015972;-60
2024/04/01 07:08:23;;;;;;;;;;;;;;;24.08;37.43;97381.64;68023;1275;1016346;-65
2024/04/01 07:11:26;;;;;;;;;;;;;;;24.38;37.11;97368.79;67977;1275;1016522;-65
2024/04/01 07:14:29;;;;;;;;;;;;;;;24.75;36.85;97350.94;68039;1275;1016713;-62
2024/04/01 07:17:32;;;;;;;;;;;;;;;25.16;36.63;97337.38;68057;1275;1016342;-60
2024/04/01 07:20:34;;;;;;;;;;;;;;;25.63;36.31;97328.23;68041;1275;1016492;-64
2024/04/01 07:23:37;;;;;;;;;;;;;;;26.13;35.82;97335.08;68014;1275;1018440;-65
2024/04/01 07:26:39;;;;;;;;;;;;;;;26.52;35.28;97332.83;68018;1275;1016411;-63
2024/04/01 07:29:42;;;;;;;;;;;;;;;26.72;34.70;97338.69;67986;1275;1016455;-63
2024/04/01 07:32:44;;;;;;;;;;;;;;;26.76;34.83;97343.84;68048;1275;1016179;-65
2024/04/01 07:35:46;;;;;;;;;;;;;;;26.82;34.32;97343.21;68090;1275;1016470;-65
2024/04/01 07:38:49;;;;;;;;;;;;;;;26.83;34.38;97345.08;68056;1275;1016325;-64
2024/04/01 07:41:51;;;;;;;;;;;;;;;26.89;34.37;97344.45;68064;1275;1016263;-61
2024/04/01 07:44:54;;;;;;;;;;;;;;;27.04;34.30;97347.95;67999;1275;1016571;-65
2024/04/01 07:47:56;;;;;;;;;;;;;;;27.13;33.87;97350.79;67974;1275;1016428;-64
2024/04/01 07:50:58;;;;;;;;;;;;;;;27.26;34.06;97355.36;68093;1275;1016464;-65
2024/04/01 07:54:01;;;;;;;;;;;;;;;27.45;33.94;97354.50;68058;1275;1016485;-60
2024/04/01 07:57:03;;;;;;;;;;;;;;;27.52;33.73;97361.16;68062;1275;1016443;-64
2024/04/01 08:00:05;;;;;;;;;;;;;;;27.51;33.82;97364.00;68038;1275;1016278;-64
2024/04/01 08:03:09;;;;;;;;;;;;;;;27.70;33.84;97348.20;68009;1275;1016463;-65
2024/04/01 08:06:12;;;;;;;;;;;;;;;28.02;33.65;97337.27;68076;1275;1016139;-61
2024/04/01 08:09:14;;;;;;;;;;;;;;;28.17;33.26;97333.71;67973;1275;1016480;-66
2024/04/01 08:12:16;;;;;;;;;;;;;;;28.60;33.70;97325.09;68000;1275;1017025;-65
2024/04/01 08:15:19;;;;;;;;;;;;;;;29.01;34.00;97314.95;68089;1275;1016115;-61
2024/04/01 08:18:21;;;;;;;;;;;;;;;29.11;32.20;97311.80;68051;1275;1016293;-60
2024/04/01 08:21:23;;;;;;;;;;;;;;;29.30;32.51;97310.20;68009;1275;1016050;-63
2024/04/01 08:24:26;;;;;;;;;;;;;;;29.55;31.89;97308.02;67993;1275;1016195;-65
2024/04/01 08:27:28;;;;;;;;;;;;;;;29.61;31.69;97313.11;67999;1275;1016263;-65
2024/04/01 08:30:31;;;;;;;;;;;;;;;29.57;31.21;97308.70;68080;1275;1018130;-65
2024/04/01 08:33:33;;;;;;;;;;;;;;;29.48;31.56;97303.73;68031;1275;1016424;-65
2024/04/01 08:36:36;;;;;;;;;;;;;;;29.72;31.42;97298.83;68049;1275;1016493;-65
2024/04/01 08:39:39;;;;;;;;;;;;;;;29.95;30.29;97292.30;68042;1275;1016088;-61
2024/04/01 08:42:41;;;;;;;;;;;;;;;30.11;30.56;97297.27;68051;1275;1017148;-62
2024/04/01 08:45:43;;;;;;;;;;;;;;;30.03;30.34;97301.88;68020;1275;1016244;-65
2024/04/01 08:48:46;;;;;;;;;;;;;;;29.81;30.38;97301.77;68041;1275;1018180;-65
2024/04/01 08:51:48;;;;;;;;;;;;;;;29.65;30.66;97300.14;67989;1275;1016464;-65
2024/04/01 08:54:51;;;;;;;;;;;;;;;29.77;30.35;97296.16;68054;1275;1016413;-62
2024/04/01 08:57:54;;;;;;;;;;;;;;;29.83;30.49;97294.94;67993;1275;1016497;-65
2024/04/01 09:00:56;;;;;;;;;;;;;;;29.95;30.06;97287.55;68020;1275;1015747;-65
2024/04/01 09:03:58;;;;;;;;;;;;;;;30.00;30.36;97281.42;68032;1275;1016872;-65
2024/04/01 09:07:01;;;;;;;;;;;;;;;30.31;30.14;97273.29;67980;1275;1015896;-64
2024/04/01 09:10:03;;;;;;;;;;;;;;;30.38;29.95;97261.78;68009;1275;1016393;-65
2024/04/01 09:13:08;;;;;;;;;;;;;;;30.32;29.88;97261.30;67891;1275;1018451;-65
2024/04/01 09:16:10;;;;;;;;;;;;;;;30.24;29.72;97259.25;67989;1275;1016504;-63
2024/04/01 09:19:13;;;;;;;;;;;;;;;30.08;29.29;97254.30;68043;1275;1016540;-64
2024/04/01 09:22:15;;;;;;;;;;;;;;;30.11;29.70;97252.22;68051;1275;1016027;-65
2024/04/01 09:25:18;;;;;;;;;;;;;;;30.40;29.32;97248.60;68005;1275;1016241;-65
2024/04/01 09:28:20;;;;;;;;;;;;;;;30.63;29.01;97249.84;67997;1275;1015839;-65
2024/04/01 09:31:22;;;;;;;;;;;;;;;30.57;28.88;97252.79;68013;1275;1015858;-61
2024/04/01 09:34:25;;;;;;;;;;;;;;;30.57;28.97;97251.16;68043;1275;1016368;-64
2024/04/01 09:37:27;;;;;;;;;;;;;;;30.68;29.08;97249.11;68076;1275;1016481;-65
2024/04/01 09:40:29;;;;;;;;;;;;;;;30.68;29.07;97242.56;68002;1275;1016200;-65
2024/04/01 09:43:32;;;;;;;;;;;;;;;30.89;29.06;97239.33;68064;1275;1016034;-64
2024/04/01 09:46:34;;;;;;;;;;;;;;;30.96;29.12;97239.58;67898;1275;1016443;-65
2024/04/01 09:49:36;;;;;;;;;;;;;;;30.93;28.81;97240.97;68029;1275;1016355;-65
2024/04/01 09:52:39;;;;;;;;;;;;;;;30.77;28.62;97247.00;68010;1275;1016193;-65
2024/04/01 09:55:42;;;;;;;;;;;;;;;30.72;29.03;97249.20;67952;1275;1016235;-62
2024/04/01 09:58:44;;;;;;;;;;;;;;;30.99;29.05;97242.99;67997;1275;1016460;-64
2024/04/01 10:01:46;;;;;;;;;;;;;;;31.32;29.00;97243.40;67996;1275;1016371;-64
2024/04/01 10:04:49;;;;;;;;;;;;;;;31.33;28.45;97242.17;68040;1275;1016135;-65
2024/04/01 10:07:51;;;;;;;;;;;;;;;31.25;28.44;97235.27;67947;1275;1016329;-61
2024/04/01 10:10:53;;;;;;;;;;;;;;;31.18;28.37;97229.02;68058;1275;1016323;-63
2024/04/01 10:13:56;;;;;;;;;;;;;;;31.32;28.50;97224.73;68042;1275;1016491;-65
2024/04/01 10:16:58;;;;;;;;;;;;;;;31.52;28.26;97229.27;68055;1275;1016420;-64
2024/04/01 10:20:00;;;;;;;;;;;;;;;31.58;28.56;97228.41;68008;1275;1016430;-64
2024/04/01 10:23:03;;;;;;;;;;;;;;;31.79;28.16;97226.35;68015;1275;1016431;-64
2024/04/01 10:26:06;;;;;;;;;;;;;;;31.93;28.19;97222.13;68093;1275;1016432;-65
2024/04/01 10:29:08;;;;;;;;;;;;;;;32.22;27.79;97221.84;68038;1275;1016476;-64
2024/04/01 10:32:10;;;;;;;;;;;;;;;32.39;27.87;97214.94;67989;1275;1016165;-64
2024/04/01 10:35:12;;;;;;;;;;;;;;;32.50;27.56;97214.22;68001;1275;1016430;-61
2024/04/01 10:38:15;;;;;;;;;;;;;;;32.78;27.68;97208.30;68009;1275;1016453;-65
2024/04/01 10:41:17;;;;;;;;;;;;;;;32.94;27.55;97204.60;68033;1275;1016100;-65
2024/04/01 10:44:19;;;;;;;;;;;;;;;33.21;27.08;97193.45;68075;1275;1016399;-65
2024/04/01 10:47:22;;;;;;;;;;;;;;;33.48;27.04;97193.95;68051;1275;1016375;-64
2024/04/01 10:50:24;;;;;;;;;;;;;;;33.80;27.19;97202.48;67988;1275;1016509;-65
2024/04/01 10:53:26;;;;;;;;;;;;;;;34.11;26.69;97202.13;68028;1275;1016355;-65
2024/04/01 10:56:28;;;;;;;;;;;;;;;34.43;26.73;97201.80;67999;1275;1018063;-65
2024/04/01 10:59:31;;;;;;;;;;;;;;;34.45;26.96;97197.80;67950;1275;1016384;-61
2024/04/01 11:02:33;;;;;;;;;;;;;;;34.36;26.42;97196.37;67999;1275;1016293;-64
2024/04/01 11:05:35;;;;;;;;;;;;;;;34.07;26.85;97193.52;68069;1275;1016374;-64
2024/04/01 11:08:38;;;;;;;;;;;;;;;33.69;26.43;97185.33;68061;1275;1016440;-65
2024/04/01 11:11:40;;;;;;;;;;;;;;;33.42;26.96;97180.04;68065;1275;1016273;-65
2024/04/01 11:14:43;;;;;;;;;;;;;;;33.59;26.58;97174.80;68006;1275;1019700;-64
2024/04/01 11:17:45;;;;;;;;;;;;;;;33.84;26.80;97168.93;67987;1275;1016600;-65
2024/04/01 11:20:47;;;;;;;;;;;;;;;33.89;26.92;97164.31;68033;1275;1016917;-65
2024/04/01 11:23:50;;;;;;;;;;;;;;;34.14;26.32;97170.02;68076;1275;1016441;-65
2024/04/01 11:26:52;;;;;;;;;;;;;;;34.15;25.76;97174.19;67923;1275;1016075;-63
2024/04/01 11:29:54;;;;;;;;;;;;;;;34.36;25.15;97167.59;68055;1275;1016319;-65
2024/04/01 11:32:57;;;;;;;;;;;;;;;34.37;25.23;97164.41;68020;1275;1016351;-65
2024/04/01 11:35:59;;;;;;;;;;;;;;;34.14;25.22;97156.30;67986;1275;1016315;-65
2024/04/01 11:39:03;;;;;;;;;;;;;;;33.90;25.76;97149.57;68030;1275;1016394;-62
2024/04/01 11:42:06;;;;;;;;;;;;;;;34.17;25.61;97146.75;68008;1275;1016083;-65
2024/04/01 11:45:08;;;;;;;;;;;;;;;33.93;24.98;97143.98;68000;1275;1017936;-66
2024/04/01 11:48:11;;;;;;;;;;;;;;;33.68;25.22;97137.92;68008;1275;1016257;-63
2024/04/01 11:51:13;;;;;;;;;;;;;;;33.70;25.13;97136.62;68000;1275;1016148;-62
2024/04/01 11:54:15;;;;;;;;;;;;;;;33.77;25.22;97130.27;68029;1275;1016231;-65
2024/04/01 11:57:17;;;;;;;;;;;;;;;33.97;25.20;97122.64;68014;1275;1019623;-64
2024/04/01 12:00:20;;;;;;;;;;;;;;;33.92;25.23;97116.31;68048;1275;1016134;-65
2024/04/01 12:03:22;;;;;;;;;;;;;;;33.80;25.58;97120.79;68009;1275;1016317;-62
2024/04/01 12:06:27;;;;;;;;;;;;;;;33.98;25.09;97123.22;67939;1275;1016280;-65
2024/04/01 12:09:30;;;;;;;;;;;;;;;34.37;24.86;97118.54;68035;1275;1018669;-63
2024/04/01 12:12:32;;;;;;;;;;;;;;;34.52;24.77;97125.39;68045;1275;1016404;-61
2024/04/01 12:15:34;;;;;;;;;;;;;;;34.65;24.81;97129.31;68052;1275;1016494;-65
2024/04/01 12:18:39;;;;;;;;;;;;;;;34.79;24.83;97133.88;68053;1275;1016515;-62
2024/04/01 12:21:41;;;;;;;;;;;;;;;34.75;24.47;97127.56;68048;1275;1016438;-63
2024/04/01 12:24:44;;;;;;;;;;;;;;;34.86;24.18;97133.20;68041;1275;1018663;-65
2024/04/01 12:27:46;;;;;;;;;;;;;;;34.57;24.31;97134.73;68042;1275;1016389;-65
2024/04/01 12:30:49;;;;;;;;;;;;;;;34.48;24.62;97131.85;68023;1275;1016420;-66
2024/04/01 12:33:52;;;;;;;;;;;;;;;34.63;24.33;97127.59;68021;1275;1016461;-63
2024/04/01 12:36:54;;;;;;;;;;;;;;;34.71;24.26;97130.09;68048;1275;1018680;-61
2024/04/01 12:39:57;;;;;;;;;;;;;;;34.72;24.18;97126.61;68045;1275;1016498;-65
2024/04/01 12:42:59;;;;;;;;;;;;;;;34.76;24.08;97119.60;68022;1275;1016520;-65
2024/04/01 12:46:01;;;;;;;;;;;;;;;34.89;23.64;97112.84;67994;1275;1016421;-64
2024/04/01 12:49:04;;;;;;;;;;;;;;;34.76;23.90;97105.06;67998;1275;1016326;-63
2024/04/01 12:52:06;;;;;;;;;;;;;;;34.69;23.79;97101.55;68060;1275;1016557;-65
2024/04/01 12:55:08;;;;;;;;;;;;;;;34.74;23.66;97096.15;68054;1275;1016304;-65
2024/04/01 12:58:11;;;;;;;;;;;;;;;34.67;23.90;97095.48;68056;1275;1016427;-65
2024/04/01 13:01:13;;;;;;;;;;;;;;;34.66;23.59;97096.35;68007;1275;1016446;-64
2024/04/01 13:04:15;;;;;;;;;;;;;;;34.53;23.98;97101.42;68019;1275;1017198;-65
2024/04/01 13:07:18;;;;;;;;;;;;;;;34.34;23.85;97100.19;67999;1275;1016462;-61
2024/04/01 13:10:20;;;;;;;;;;;;;;;34.07;24.12;97096.31;68023;1275;1016642;-65
2024/04/01 13:13:23;;;;;;;;;;;;;;;33.94;24.15;97102.51;68067;1275;1018302;-65
2024/04/01 13:16:25;;;;;;;;;;;;;;;33.99;24.00;97097.16;68026;1275;1016525;-64
2024/04/01 13:19:28;;;;;;;;;;;;;;;33.93;24.31;97095.87;67968;1275;1017074;-65
2024/04/01 13:22:31;;;;;;;;;;;;;;;33.64;24.36;97088.02;68005;1275;1019493;-65
2024/04/01 13:25:34;;;;;;;;;;;;;;;33.52;24.43;97084.52;68013;1275;1016296;-65
2024/04/01 13:28:36;;;;;;;;;;;;;;;33.52;24.56;97080.35;68031;1275;1016714;-65
2024/04/01 13:31:38;;;;;;;;;;;;;;;33.68;24.19;97075.92;68073;1274;1016585;-65
2024/04/01 13:34:40;;;;;;;;;;;;;;;33.69;24.21;97074.23;68051;1275;1016465;-65
2024/04/01 13:37:43;;;;;;;;;;;;;;;33.86;24.02;97073.48;67926;1275;1016335;-62
2024/04/01 13:40:45;;;;;;;;;;;;;;;34.01;23.80;97072.56;68043;1275;1016381;-65
2024/04/01 13:43:47;;;;;;;;;;;;;;;34.09;23.93;97061.81;68031;1275;1016552;-65
2024/04/01 13:46:50;;;;;;;;;;;;;;;34.17;23.98;97059.28;68009;1275;1016485;-65
2024/04/01 13:49:52;;;;;;;;;;;;;;;34.50;23.77;97056.83;68013;1275;1016313;-65
2024/04/01 13:52:54;;;;;;;;;;;;;;;34.67;23.54;97050.45;68020;1275;1015828;-62
2024/04/01 13:55:56;;;;;;;;;;;;;;;34.89;23.56;97043.73;67989;1275;1015994;-65
2024/04/01 13:58:59;;;;;;;;;;;;;;;35.16;23.30;97044.69;67920;1275;1016210;-65
2024/04/01 14:02:01;;;;;;;;;;;;;;;35.16;23.34;97040.92;68054;1275;1016620;-65
2024/04/01 14:05:04;;;;;;;;;;;;;;;35.38;23.20;97034.39;68072;1275;1016447;-61
2024/04/01 14:08:06;;;;;;;;;;;;;;;35.48;23.10;97028.73;68000;1275;1016525;-65
2024/04/01 14:11:08;;;;;;;;;;;;;;;35.40;23.06;97026.30;67972;1275;1016571;-66
2024/04/01 14:14:11;;;;;;;;;;;;;;;35.52;22.97;97027.23;68020;1275;1016146;-65
2024/04/01 14:17:13;;;;;;;;;;;;;;;35.61;22.88;97024.22;67959;1275;1016430;-62
2024/04/01 14:20:15;;;;;;;;;;;;;;;35.42;22.98;97019.54;68012;1275;1016277;-62
2024/04/01 14:23:17;;;;;;;;;;;;;;;35.03;23.14;97025.73;68064;1275;1016459;-65
2024/04/01 14:26:20;;;;;;;;;;;;;;;34.90;23.10;97023.78;68047;1275;1016583;-65
2024/04/01 14:29:23;;;;;;;;;;;;;;;35.02;23.10;97019.47;67974;1275;1016507;-65
2024/04/01 14:32:25;;;;;;;;;;;;;;;35.31;22.91;97014.98;67870;1275;1016059;-65
2024/04/01 14:35:28;;;;;;;;;;;;;;;35.53;22.61;97009.27;67908;1275;1016155;-66
2024/04/01 14:38:30;;;;;;;;;;;;;;;35.70;22.38;97010.83;68012;1275;1016428;-65
2024/04/01 14:41:33;;;;;;;;;;;;;;;35.61;22.45;97009.14;68017;1275;1016230;-62
2024/04/01 14:44:35;;;;;;;;;;;;;;;35.61;22.60;97009.23;68029;1275;1019832;-64
2024/04/01 14:47:38;;;;;;;;;;;;;;;35.43;22.30;97007.91;68043;1275;1016376;-64
2024/04/01 14:50:40;;;;;;;;;;;;;;;35.26;22.50;97001.98;68010;1275;1016930;-64
2024/04/01 14:53:43;;;;;;;;;;;;;;;35.42;22.65;96996.30;68002;1275;1016390;-63
2024/04/01 14:56:45;;;;;;;;;;;;;;;35.58;22.67;96997.91;68014;1275;1016494;-61
2024/04/01 14:59:48;;;;;;;;;;;;;;;35.73;22.58;96997.46;68082;1275;1016210;-64
2024/04/01 15:02:50;;;;;;;;;;;;;;;35.80;22.10;96995.93;68048;1275;1015893;-64
2024/04/01 15:05:52;;;;;;;;;;;;;;;35.79;21.95;96992.52;68054;1275;1016473;-65
2024/04/01 15:08:55;;;;;;;;;;;;;;;35.87;22.03;96993.24;68005;1275;1019059;-61
2024/04/01 15:11:57;;;;;;;;;;;;;;;35.76;21.95;96999.38;68017;1275;1016498;-64
2024/04/01 15:14:59;;;;;;;;;;;;;;;35.28;22.12;96996.72;67981;1275;1016406;-64
2024/04/01 15:18:02;;;;;;;;;;;;;;;34.87;22.06;96998.02;68037;1275;1016271;-64
2024/04/01 15:21:04;;;;;;;;;;;;;;;34.48;22.39;96999.12;67893;1275;1016542;-63
2024/04/01 15:24:06;;;;;;;;;;;;;;;34.33;22.46;97002.73;68016;1275;1016160;-62
2024/04/01 15:27:09;;;;;;;;;;;;;;;34.30;23.05;97002.46;67979;1275;1016485;-65